sensor_id;sensor_type;location;lat;lon;timestamp;pressure;altitude;pressure_sealevel;temperature;humidity
19576;BME280;41589;51.196;7.074;2022-08-18T00:01:28;98661.38;;;21.76;60.00
19576;BME280;41589;51.196;7.074;2022-08-18T00:06:29;98663.03;;;21.71;60.44
19576;BME280;41589;51.196;7.074;2022-08-18T00:11:32;98671.19;;;21.67;60.75
19576;BME280;41589;51.196;7.074;2022-08-18T00:16:33;98674.63;;;21.66;60.90
19576;BME280;41589;51.196;7.074;2022-08-18T00:21:34;98668.66;;;21.64;60.98
19576;BME280;41589;51.196;7.074;2022-08-18T00:26:35;98672.63;;;21.74;61.18
19576;BME280;41589;51.196;7.074;2022-08-18T00:31:35;98674.50;;;21.71;60.15
19576;BME280;41589;51.196;7.074;2022-08-18T00:36:36;98670.66;;;21.69;60.47
19576;BME280;41589;51.196;7.074;2022-08-18T00:41:36;98664.78;;;21.61;60.54
19576;BME280;41589;51.196;7.074;2022-08-18T00:46:37;98660.38;;;21.47;60.50
19576;BME280;41589;51.196;7.074;2022-08-18T00:51:42;98655.06;;;21.38;60.69
19576;BME280;41589;51.196;7.074;2022-08-18T00:56:48;98655.94;;;21.32;60.54
19576;BME280;41589;51.196;7.074;2022-08-18T01:01:50;98664.94;;;21.23;60.56
19576;BME280;41589;51.196;7.074;2022-08-18T01:06:55;98645.03;;;21.18;60.61
19576;BME280;41589;51.196;7.074;2022-08-18T01:11:57;98647.44;;;21.14;60.81
19576;BME280;41589;51.196;7.074;2022-08-18T01:16:58;98655.56;;;21.10;61.21
19576;BME280;41589;51.196;7.074;2022-08-18T01:27:48;98664.28;;;21.04;61.83
19576;BME280;41589;51.196;7.074;2022-08-18T01:32:48;98663.94;;;21.08;61.92
19576;BME280;41589;51.196;7.074;2022-08-18T01:37:54;98671.97;;;21.09;62.13
19576;BME280;41589;51.196;7.074;2022-08-18T01:42:54;98671.19;;;21.09;62.13
19576;BME280;41589;51.196;7.074;2022-08-18T01:47:56;98676.69;;;21.07;62.32
19576;BME280;41589;51.196;7.074;2022-08-18T01:52:59;98663.25;;;21.01;62.06
19576;BME280;41589;51.196;7.074;2022-08-18T01:57:59;98664.56;;;21.00;62.10
19576;BME280;41589;51.196;7.074;2022-08-18T02:03:03;98667.97;;;20.99;62.56
19576;BME280;41589;51.196;7.074;2022-08-18T02:08:06;98677.66;;;20.96;62.23
19576;BME280;41589;51.196;7.074;2022-08-18T02:13:07;98676.34;;;20.97;63.05
19576;BME280;41589;51.196;7.074;2022-08-18T02:18:19;98670.19;;;20.93;62.95
19576;BME280;41589;51.196;7.074;2022-08-18T02:23:20;98659.41;;;20.80;63.70
19576;BME280;41589;51.196;7.074;2022-08-18T02:28:20;98660.50;;;20.77;64.79
19576;BME280;41589;51.196;7.074;2022-08-18T02:33:21;98653.44;;;20.84;65.67
19576;BME280;41589;51.196;7.074;2022-08-18T02:38:21;98654.84;;;20.90;66.40
19576;BME280;41589;51.196;7.074;2022-08-18T02:43:22;98660.13;;;20.86;66.50
19576;BME280;41589;51.196;7.074;2022-08-18T02:48:23;98664.16;;;20.77;67.00
19576;BME280;41589;51.196;7.074;2022-08-18T02:53:31;98651.34;;;20.84;66.82
19576;BME280;41589;51.196;7.074;2022-08-18T02:58:32;98652.88;;;20.85;66.89
19576;BME280;41589;51.196;7.074;2022-08-18T03:03:32;98641.09;;;20.89;66.92
19576;BME280;41589;51.196;7.074;2022-08-18T03:08:33;98653.66;;;20.86;67.13
19576;BME280;41589;51.196;7.074;2022-08-18T03:13:33;98655.34;;;20.75;67.38
19576;BME280;41589;51.196;7.074;2022-08-18T03:18:34;98658.06;;;20.68;67.45
19576;BME280;41589;51.196;7.074;2022-08-18T03:23:36;98653.09;;;20.68;67.82
19576;BME280;41589;51.196;7.074;2022-08-18T03:28:45;98653.09;;;20.68;67.37
19576;BME280;41589;51.196;7.074;2022-08-18T03:33:46;98658.06;;;20.68;67.61
19576;BME280;41589;51.196;7.074;2022-08-18T03:38:47;98653.66;;;20.67;67.53
19576;BME280;41589;51.196;7.074;2022-08-18T03:43:49;98649.66;;;20.57;67.51
19576;BME280;41589;51.196;7.074;2022-08-18T03:48:50;98649.06;;;20.45;67.89
19576;BME280;41589;51.196;7.074;2022-08-18T03:53:54;98651.91;;;20.45;68.16
19576;BME280;41589;51.196;7.074;2022-08-18T03:58:59;98658.63;;;20.47;68.29
19576;BME280;41589;51.196;7.074;2022-08-18T04:04:03;98658.34;;;20.51;68.25
19576;BME280;41589;51.196;7.074;2022-08-18T04:09:06;98658.25;;;20.57;67.98
19576;BME280;41589;51.196;7.074;2022-08-18T04:14:07;98666.75;;;20.43;67.97
19576;BME280;41589;51.196;7.074;2022-08-18T04:19:07;98656.72;;;20.37;67.96
19576;BME280;41589;51.196;7.074;2022-08-18T04:24:10;98656.72;;;20.37;68.11
19576;BME280;41589;51.196;7.074;2022-08-18T04:29:13;98668.25;;;20.31;68.21
19576;BME280;41589;51.196;7.074;2022-08-18T04:34:14;98668.16;;;20.18;68.60
19576;BME280;41589;51.196;7.074;2022-08-18T04:39:14;98668.47;;;20.14;68.98
19576;BME280;41589;51.196;7.074;2022-08-18T04:44:15;98672.44;;;20.06;69.27
19576;BME280;41589;51.196;7.074;2022-08-18T04:49:21;98688.81;;;20.05;69.52
19576;BME280;41589;51.196;7.074;2022-08-18T04:54:24;98694.94;;;20.15;69.66
19576;BME280;41589;51.196;7.074;2022-08-18T04:59:25;98696.25;;;20.14;69.42
19576;BME280;41589;51.196;7.074;2022-08-18T05:04:25;98693.63;;;20.16;70.08
19576;BME280;41589;51.196;7.074;2022-08-18T05:09:28;98688.31;;;20.26;69.85
19576;BME280;41589;51.196;7.074;2022-08-18T05:14:29;98700.88;;;20.17;69.48
19576;BME280;41589;51.196;7.074;2022-08-18T05:19:30;98711.66;;;20.05;70.12
19576;BME280;41589;51.196;7.074;2022-08-18T05:24:31;98709.31;;;20.09;70.24
19576;BME280;41589;51.196;7.074;2022-08-18T05:29:34;98712.50;;;20.00;70.54
19576;BME280;41589;51.196;7.074;2022-08-18T05:34:35;98717.47;;;20.00;70.68
19576;BME280;41589;51.196;7.074;2022-08-18T05:39:45;98717.34;;;20.11;70.70
19576;BME280;41589;51.196;7.074;2022-08-18T05:44:49;98721.44;;;20.15;70.69
19576;BME280;41589;51.196;7.074;2022-08-18T05:49:51;98720.88;;;20.17;70.88
19576;BME280;41589;51.196;7.074;2022-08-18T05:54:55;98728.47;;;20.33;70.71
19576;BME280;41589;51.196;7.074;2022-08-18T06:00:19;98724.09;;;20.51;70.44
19576;BME280;41589;51.196;7.074;2022-08-18T06:05:39;98720.97;;;20.68;70.26
19576;BME280;41589;51.196;7.074;2022-08-18T06:10:46;98723.50;;;20.71;69.59
19576;BME280;41589;51.196;7.074;2022-08-18T06:21:21;98753.97;;;20.88;69.29
19576;BME280;41589;51.196;7.074;2022-08-18T06:26:53;98747.00;;;20.83;69.01
19576;BME280;41589;51.196;7.074;2022-08-18T06:32:23;98747.31;;;20.98;69.66
19576;BME280;41589;51.196;7.074;2022-08-18T06:37:41;98758.50;;;21.15;69.06
19576;BME280;41589;51.196;7.074;2022-08-18T06:43:10;98752.22;;;21.17;68.25
19576;BME280;41589;51.196;7.074;2022-08-18T06:48:39;98758.81;;;21.12;67.98
19576;BME280;41589;51.196;7.074;2022-08-18T06:54:24;98769.41;;;21.17;68.61
19576;BME280;41589;51.196;7.074;2022-08-18T07:04:38;98775.84;;;21.36;68.15
19576;BME280;41589;51.196;7.074;2022-08-18T07:09:40;98762.84;;;21.35;67.47
19576;BME280;41589;51.196;7.074;2022-08-18T07:14:45;98763.28;;;21.26;67.47
19576;BME280;41589;51.196;7.074;2022-08-18T07:20:05;98768.13;;;21.31;67.52
19576;BME280;41589;51.196;7.074;2022-08-18T07:25:20;98768.34;;;21.33;67.68
19576;BME280;41589;51.196;7.074;2022-08-18T07:35:37;98758.53;;;21.28;67.26
19576;BME280;41589;51.196;7.074;2022-08-18T07:45:51;98748.41;;;21.27;67.66
19576;BME280;41589;51.196;7.074;2022-08-18T07:51:04;98742.66;;;21.14;67.85
19576;BME280;41589;51.196;7.074;2022-08-18T07:56:18;98743.06;;;21.05;68.42
19576;BME280;41589;51.196;7.074;2022-08-18T08:01:37;98745.16;;;21.04;68.38
19576;BME280;41589;51.196;7.074;2022-08-18T08:07:04;98769.41;;;21.17;68.58
19576;BME280;41589;51.196;7.074;2022-08-18T08:17:37;98782.00;;;21.40;68.23
19576;BME280;41589;51.196;7.074;2022-08-18T08:28:33;98783.16;;;21.50;67.87
19576;BME280;41589;51.196;7.074;2022-08-18T08:33:50;98787.16;;;21.60;67.72
19576;BME280;41589;51.196;7.074;2022-08-18T08:38:55;98779.34;;;21.74;67.49
19576;BME280;41589;51.196;7.074;2022-08-18T08:49:47;98799.53;;;21.82;66.88
19576;BME280;41589;51.196;7.074;2022-08-18T08:54:53;98811.00;;;21.82;66.48
19576;BME280;41589;51.196;7.074;2022-08-18T08:59:56;98810.56;;;21.91;66.24
19576;BME280;41589;51.196;7.074;2022-08-18T09:05:10;98802.88;;;21.99;66.43
19576;BME280;41589;51.196;7.074;2022-08-18T09:10:41;98795.03;;;22.26;66.00
19576;BME280;41589;51.196;7.074;2022-08-18T09:15:55;98793.06;;;22.34;65.37
19576;BME280;41589;51.196;7.074;2022-08-18T09:26:51;98788.63;;;23.07;64.17
19576;BME280;41589;51.196;7.074;2022-08-18T09:37:22;98780.53;;;23.60;61.46
19576;BME280;41589;51.196;7.074;2022-08-18T09:42:46;98785.41;;;23.94;60.45
19576;BME280;41589;51.196;7.074;2022-08-18T09:52:57;98798.88;;;23.99;58.38
19576;BME280;41589;51.196;7.074;2022-08-18T10:03:25;98790.53;;;24.96;56.18
19576;BME280;41589;51.196;7.074;2022-08-18T10:08:52;98802.94;;;25.27;55.17
19576;BME280;41589;51.196;7.074;2022-08-18T10:14:24;98798.91;;;25.38;53.54
19576;BME280;41589;51.196;7.074;2022-08-18T10:19:43;98795.09;;;25.36;52.85
19576;BME280;41589;51.196;7.074;2022-08-18T10:24:53;98793.56;;;25.50;51.79
19576;BME280;41589;51.196;7.074;2022-08-18T10:29:56;98783.53;;;25.28;51.38
19576;BME280;41589;51.196;7.074;2022-08-18T10:34:57;98777.41;;;25.39;51.00
19576;BME280;41589;51.196;7.074;2022-08-18T10:45:29;98776.66;;;25.46;50.66
19576;BME280;41589;51.196;7.074;2022-08-18T10:50:38;98780.69;;;25.36;50.37
19576;BME280;41589;51.196;7.074;2022-08-18T11:06:00;98762.59;;;25.20;51.03
19576;BME280;41589;51.196;7.074;2022-08-18T11:11:08;98749.97;;;25.69;50.50
19576;BME280;41589;51.196;7.074;2022-08-18T11:16:35;98744.16;;;26.07;49.20
19576;BME280;41589;51.196;7.074;2022-08-18T11:21:46;98746.66;;;26.18;48.54
19576;BME280;41589;51.196;7.074;2022-08-18T11:31:49;98751.19;;;26.44;47.54
19576;BME280;41589;51.196;7.074;2022-08-18T11:36:55;98746.00;;;26.42;48.22
19576;BME280;41589;51.196;7.074;2022-08-18T11:41:57;98740.06;;;26.33;47.36
19576;BME280;41589;51.196;7.074;2022-08-18T11:47:13;98733.00;;;26.03;47.96
19576;BME280;41589;51.196;7.074;2022-08-18T11:52:18;98734.22;;;25.85;47.98
19576;BME280;41589;51.196;7.074;2022-08-18T11:57:40;98741.75;;;25.65;48.20
19576;BME280;41589;51.196;7.074;2022-08-18T12:02:41;98737.09;;;25.70;48.13
19576;BME280;41589;51.196;7.074;2022-08-18T12:07:41;98724.22;;;25.71;47.98
19576;BME280;41589;51.196;7.074;2022-08-18T12:12:45;98725.56;;;25.85;47.88
19576;BME280;41589;51.196;7.074;2022-08-18T12:17:47;98720.00;;;25.87;47.80
19576;BME280;41589;51.196;7.074;2022-08-18T12:22:48;98730.53;;;26.00;47.17
19576;BME280;41589;51.196;7.074;2022-08-18T12:27:48;98749.94;;;25.92;47.46
19576;BME280;41589;51.196;7.074;2022-08-18T12:32:49;98752.66;;;25.97;47.74
19576;BME280;41589;51.196;7.074;2022-08-18T12:37:50;98769.38;;;25.99;47.87
19576;BME280;41589;51.196;7.074;2022-08-18T12:42:51;98784.75;;;25.94;47.15
19576;BME280;41589;51.196;7.074;2022-08-18T12:47:51;98794.38;;;25.96;47.36
19576;BME280;41589;51.196;7.074;2022-08-18T12:52:51;98770.13;;;26.07;46.66
19576;BME280;41589;51.196;7.074;2022-08-18T12:57:52;98752.81;;;26.14;47.15
19576;BME280;41589;51.196;7.074;2022-08-18T13:02:52;98741.06;;;26.12;47.12
19576;BME280;41589;51.196;7.074;2022-08-18T13:07:55;98724.53;;;26.13;46.42
19576;BME280;41589;51.196;7.074;2022-08-18T13:12:57;98721.09;;;26.07;47.10
19576;BME280;41589;51.196;7.074;2022-08-18T13:17:58;98717.06;;;26.10;47.21
19576;BME280;41589;51.196;7.074;2022-08-18T13:22:58;98721.88;;;26.00;47.32
19576;BME280;41589;51.196;7.074;2022-08-18T13:27:59;98705.75;;;25.89;47.28
19576;BME280;41589;51.196;7.074;2022-08-18T13:33:00;98710.16;;;26.05;47.34
19576;BME280;41589;51.196;7.074;2022-08-18T13:38:01;98695.38;;;25.94;46.83
19576;BME280;41589;51.196;7.074;2022-08-18T13:43:01;98694.47;;;25.76;47.35
19576;BME280;41589;51.196;7.074;2022-08-18T13:48:02;98696.41;;;25.66;47.65
19576;BME280;41589;51.196;7.074;2022-08-18T13:53:13;98687.53;;;25.86;47.71
19576;BME280;41589;51.196;7.074;2022-08-18T13:58:15;98699.75;;;26.02;47.39
19576;BME280;41589;51.196;7.074;2022-08-18T14:03:15;98701.53;;;25.90;46.86
19576;BME280;41589;51.196;7.074;2022-08-18T14:08:16;98702.09;;;25.96;47.00
19576;BME280;41589;51.196;7.074;2022-08-18T14:13:16;98702.09;;;26.04;46.72
19576;BME280;41589;51.196;7.074;2022-08-18T14:18:18;98711.69;;;26.14;46.49
19576;BME280;41589;51.196;7.074;2022-08-18T14:23:19;98717.44;;;26.14;46.52
19576;BME280;41589;51.196;7.074;2022-08-18T14:28:38;98709.34;;;26.20;45.77
19576;BME280;41589;51.196;7.074;2022-08-18T14:33:38;98721.88;;;26.07;46.46
19576;BME280;41589;51.196;7.074;2022-08-18T14:38:39;98710.09;;;26.36;45.92
19576;BME280;41589;51.196;7.074;2022-08-18T14:43:41;98715.88;;;26.28;45.83
19576;BME280;41589;51.196;7.074;2022-08-18T14:48:45;98714.56;;;26.06;45.27
19576;BME280;41589;51.196;7.074;2022-08-18T14:53:51;98710.75;;;25.88;45.72
19576;BME280;41589;51.196;7.074;2022-08-18T14:58:54;98712.88;;;25.96;46.16
19576;BME280;41589;51.196;7.074;2022-08-18T15:03:54;98700.50;;;26.10;45.33
19576;BME280;41589;51.196;7.074;2022-08-18T15:08:55;98690.13;;;26.15;45.18
19576;BME280;41589;51.196;7.074;2022-08-18T15:13:56;98693.75;;;26.31;44.71
19576;BME280;41589;51.196;7.074;2022-08-18T15:18:57;98707.00;;;26.34;44.09
19576;BME280;41589;51.196;7.074;2022-08-18T15:23:58;98704.31;;;26.36;44.15
19576;BME280;41589;51.196;7.074;2022-08-18T15:29:17;98686.63;;;26.32;44.17
19576;BME280;41589;51.196;7.074;2022-08-18T15:34:18;98686.91;;;26.51;43.92
19576;BME280;41589;51.196;7.074;2022-08-18T15:39:19;98697.25;;;26.62;43.69
19576;BME280;41589;51.196;7.074;2022-08-18T15:44:21;98703.81;;;26.55;43.02
19576;BME280;41589;51.196;7.074;2022-08-18T15:49:22;98698.44;;;26.59;42.72
19576;BME280;41589;51.196;7.074;2022-08-18T15:54:23;98691.28;;;26.67;42.18
19576;BME280;41589;51.196;7.074;2022-08-18T15:59:24;98681.50;;;26.55;41.98
19576;BME280;41589;51.196;7.074;2022-08-18T16:04:24;98676.88;;;26.60;42.79
19576;BME280;41589;51.196;7.074;2022-08-18T16:09:25;98679.16;;;26.61;41.23
19576;BME280;41589;51.196;7.074;2022-08-18T16:14:25;98675.03;;;26.47;40.61
19576;BME280;41589;51.196;7.074;2022-08-18T16:19:26;98681.63;;;26.32;41.39
19576;BME280;41589;51.196;7.074;2022-08-18T16:24:26;98675.78;;;26.48;41.67
19576;BME280;41589;51.196;7.074;2022-08-18T16:29:26;98683.91;;;26.34;40.63
19576;BME280;41589;51.196;7.074;2022-08-18T16:34:27;98666.41;;;26.24;41.17
19576;BME280;41589;51.196;7.074;2022-08-18T16:39:28;98664.72;;;26.29;41.07
19576;BME280;41589;51.196;7.074;2022-08-18T16:44:32;98670.84;;;26.33;40.87
19576;BME280;41589;51.196;7.074;2022-08-18T16:49:33;98667.78;;;26.31;41.27
19576;BME280;41589;51.196;7.074;2022-08-18T16:54:34;98658.56;;;26.25;41.19
19576;BME280;41589;51.196;7.074;2022-08-18T16:59:35;98653.56;;;26.25;41.03
19576;BME280;41589;51.196;7.074;2022-08-18T17:04:55;98653.75;;;26.27;41.08
19576;BME280;41589;51.196;7.074;2022-08-18T17:10:02;98657.19;;;26.33;41.45
19576;BME280;41589;51.196;7.074;2022-08-18T17:15:03;98651.97;;;26.39;41.39
19576;BME280;41589;51.196;7.074;2022-08-18T17:20:04;98660.31;;;26.28;41.43
19576;BME280;41589;51.196;7.074;2022-08-18T17:25:07;98654.13;;;26.24;41.33
19576;BME280;41589;51.196;7.074;2022-08-18T17:30:14;98648.00;;;26.19;41.77
19576;BME280;41589;51.196;7.074;2022-08-18T17:40:29;98650.75;;;26.02;41.50
19576;BME280;41589;51.196;7.074;2022-08-18T17:45:31;98660.38;;;25.97;41.82
19576;BME280;41589;51.196;7.074;2022-08-18T17:50:44;98660.03;;;25.85;41.14
19576;BME280;41589;51.196;7.074;2022-08-18T17:56:10;98659.31;;;25.70;41.79
19576;BME280;41589;51.196;7.074;2022-08-18T18:01:11;98660.22;;;25.80;42.19
19576;BME280;41589;51.196;7.074;2022-08-18T18:06:17;98654.47;;;25.80;41.78
19576;BME280;41589;51.196;7.074;2022-08-18T18:11:32;98652.94;;;25.86;42.52
19576;BME280;41589;51.196;7.074;2022-08-18T18:16:33;98644.88;;;25.85;42.80
19576;BME280;41589;51.196;7.074;2022-08-18T18:21:36;98640.28;;;25.67;42.01
19576;BME280;41589;51.196;7.074;2022-08-18T18:26:39;98633.56;;;25.64;42.80
19576;BME280;41589;51.196;7.074;2022-08-18T18:37:01;98639.91;;;25.40;43.17
19576;BME280;41589;51.196;7.074;2022-08-18T18:52:40;98658.00;;;25.02;44.17
19576;BME280;41589;51.196;7.074;2022-08-18T19:03:56;98661.19;;;24.83;44.63
19576;BME280;41589;51.196;7.074;2022-08-18T19:09:11;98661.56;;;24.72;44.77
19576;BME280;41589;51.196;7.074;2022-08-18T19:14:20;98668.25;;;24.67;45.13
19576;BME280;41589;51.196;7.074;2022-08-18T19:19:31;98668.25;;;24.59;45.31
19576;BME280;41589;51.196;7.074;2022-08-18T19:24:39;98674.78;;;24.60;45.24
19576;BME280;41589;51.196;7.074;2022-08-18T19:29:42;98683.41;;;24.60;45.48
19576;BME280;41589;51.196;7.074;2022-08-18T19:34:45;98679.00;;;24.59;46.17
19576;BME280;41589;51.196;7.074;2022-08-18T19:40:09;98685.88;;;24.56;46.59
19576;BME280;41589;51.196;7.074;2022-08-18T19:50:50;98673.00;;;24.41;46.94
19576;BME280;41589;51.196;7.074;2022-08-18T19:56:08;98669.25;;;24.26;47.14
19576;BME280;41589;51.196;7.074;2022-08-18T20:07:02;98676.44;;;24.04;47.32
19576;BME280;41589;51.196;7.074;2022-08-18T20:12:18;98679.44;;;23.90;47.25
19576;BME280;41589;51.196;7.074;2022-08-18T20:17:23;98691.66;;;23.83;47.87
19576;BME280;41589;51.196;7.074;2022-08-18T20:22:36;98688.19;;;23.77;47.88
19576;BME280;41589;51.196;7.074;2022-08-18T20:27:44;98690.19;;;23.69;48.22
19576;BME280;41589;51.196;7.074;2022-08-18T20:38:27;98698.91;;;23.56;48.78
19576;BME280;41589;51.196;7.074;2022-08-18T20:43:33;98697.38;;;23.55;48.77
19576;BME280;41589;51.196;7.074;2022-08-18T20:49:15;98697.69;;;23.44;48.98
19576;BME280;41589;51.196;7.074;2022-08-18T20:54:47;98700.69;;;23.38;49.48
19576;BME280;41589;51.196;7.074;2022-08-18T21:05:04;98692.00;;;23.30;50.11
19576;BME280;41589;51.196;7.074;2022-08-18T21:10:17;98699.09;;;23.29;49.96
19576;BME280;41589;51.196;7.074;2022-08-18T21:15:21;98699.38;;;23.18;50.08
19576;BME280;41589;51.196;7.074;2022-08-18T21:20:23;98687.00;;;23.02;50.82
19576;BME280;41589;51.196;7.074;2022-08-18T21:25:24;98689.72;;;23.08;50.83
19576;BME280;41589;51.196;7.074;2022-08-18T21:30:25;98683.38;;;23.02;50.83
19576;BME280;41589;51.196;7.074;2022-08-18T21:35:32;98685.63;;;22.83;51.24
19576;BME280;41589;51.196;7.074;2022-08-18T21:45:46;98698.34;;;22.74;52.97
19576;BME280;41589;51.196;7.074;2022-08-18T21:50:49;98704.31;;;22.97;51.81
19576;BME280;41589;51.196;7.074;2022-08-18T21:55:51;98699.69;;;22.94;52.00
19576;BME280;41589;51.196;7.074;2022-08-18T22:11:34;98710.19;;;22.57;53.35
19576;BME280;41589;51.196;7.074;2022-08-18T22:22:22;98703.31;;;22.26;55.06
19576;BME280;41589;51.196;7.074;2022-08-18T22:27:47;98708.72;;;22.30;55.42
19576;BME280;41589;51.196;7.074;2022-08-18T22:32:48;98705.19;;;22.37;55.03
19576;BME280;41589;51.196;7.074;2022-08-18T22:37:49;98707.03;;;22.47;54.78
19576;BME280;41589;51.196;7.074;2022-08-18T22:42:49;98699.84;;;22.54;54.79
19576;BME280;41589;51.196;7.074;2022-08-18T22:47:50;98709.00;;;22.53;54.70
19576;BME280;41589;51.196;7.074;2022-08-18T22:52:50;98708.81;;;22.51;54.83
19576;BME280;41589;51.196;7.074;2022-08-18T22:57:51;98713.53;;;22.48;54.91
19576;BME280;41589;51.196;7.074;2022-08-18T23:02:53;98713.66;;;22.42;55.57
19576;BME280;41589;51.196;7.074;2022-08-18T23:07:53;98715.31;;;22.25;56.15
19576;BME280;41589;51.196;7.074;2022-08-18T23:12:54;98717.31;;;22.30;56.24
19576;BME280;41589;51.196;7.074;2022-08-18T23:17:54;98721.47;;;22.55;55.49
19576;BME280;41589;51.196;7.074;2022-08-18T23:22:56;98720.91;;;22.57;55.66
19576;BME280;41589;51.196;7.074;2022-08-18T23:27:57;98717.72;;;22.60;55.32
19576;BME280;41589;51.196;7.074;2022-08-18T23:32:59;98729.69;;;22.72;55.25
19576;BME280;41589;51.196;7.074;2022-08-18T23:38:00;98732.50;;;22.85;55.03
19576;BME280;41589;51.196;7.074;2022-08-18T23:43:02;98727.28;;;22.97;54.58
19576;BME280;41589;51.196;7.074;2022-08-18T23:48:04;98719.91;;;22.88;54.48
19576;BME280;41589;51.196;7.074;2022-08-18T23:53:05;98724.13;;;22.87;54.05
19576;BME280;41589;51.196;7.074;2022-08-18T23:58:07;98720.19;;;22.77;53.92
